sensor_id;sensor_type;location;lat;lon;timestamp;P1;durP1;ratioP1;P2;durP2;ratioP2
58567;SDS011;44354;46.192;-1.076;2022-07-23T00:01:16;16.33;;;8.55;;
58567;SDS011;44354;46.192;-1.076;2022-07-23T00:03:41;25.77;;;9.13;;
58567;SDS011;44354;46.192;-1.076;2022-07-23T00:06:07;14.10;;;8.93;;
58567;SDS011;44354;46.192;-1.076;2022-07-23T00:08:33;19.40;;;9.15;;
58567;SDS011;44354;46.192;-1.076;2022-07-23T00:10:58;20.08;;;9.98;;
58567;SDS011;44354;46.192;-1.076;2022-07-23T00:13:25;21.70;;;9.90;;
58567;SDS011;44354;46.192;-1.076;2022-07-23T00:15:51;16.75;;;9.40;;
58567;SDS011;44354;46.192;-1.076;2022-07-23T00:18:17;17.38;;;9.40;;
58567;SDS011;44354;46.192;-1.076;2022-07-23T00:20:43;18.65;;;9.52;;
58567;SDS011;44354;46.192;-1.076;2022-07-23T00:23:09;22.92;;;9.90;;
58567;SDS011;44354;46.192;-1.076;2022-07-23T00:25:34;19.02;;;9.60;;
58567;SDS011;44354;46.192;-1.076;2022-07-23T00:28:00;20.05;;;10.95;;
58567;SDS011;44354;46.192;-1.076;2022-07-23T00:30:27;17.80;;;10.20;;
58567;SDS011;44354;46.192;-1.076;2022-07-23T00:33:01;22.42;;;10.98;;
58567;SDS011;44354;46.192;-1.076;2022-07-23T00:35:29;22.75;;;11.63;;
58567;SDS011;44354;46.192;-1.076;2022-07-23T00:37:57;23.75;;;11.68;;
58567;SDS011;44354;46.192;-1.076;2022-07-23T00:40:24;24.35;;;11.65;;
58567;SDS011;44354;46.192;-1.076;2022-07-23T00:42:51;21.95;;;11.18;;
58567;SDS011;44354;46.192;-1.076;2022-07-23T00:45:17;18.13;;;10.60;;
58567;SDS011;44354;46.192;-1.076;2022-07-23T00:47:42;16.77;;;10.32;;
58567;SDS011;44354;46.192;-1.076;2022-07-23T00:50:08;20.95;;;11.18;;
58567;SDS011;44354;46.192;-1.076;2022-07-23T00:52:35;19.88;;;10.80;;
58567;SDS011;44354;46.192;-1.076;2022-07-23T00:55:02;19.05;;;11.55;;
58567;SDS011;44354;46.192;-1.076;2022-07-23T00:57:29;19.85;;;11.45;;
58567;SDS011;44354;46.192;-1.076;2022-07-23T00:59:55;20.98;;;12.35;;
58567;SDS011;44354;46.192;-1.076;2022-07-23T01:02:22;22.77;;;11.95;;
58567;SDS011;44354;46.192;-1.076;2022-07-23T01:04:49;23.25;;;12.25;;
58567;SDS011;44354;46.192;-1.076;2022-07-23T01:07:15;19.58;;;11.65;;
58567;SDS011;44354;46.192;-1.076;2022-07-23T01:09:41;18.13;;;12.77;;
58567;SDS011;44354;46.192;-1.076;2022-07-23T01:12:08;25.65;;;14.25;;
58567;SDS011;44354;46.192;-1.076;2022-07-23T01:14:33;20.30;;;13.68;;
58567;SDS011;44354;46.192;-1.076;2022-07-23T01:16:59;19.70;;;13.75;;
58567;SDS011;44354;46.192;-1.076;2022-07-23T01:19:25;22.88;;;13.25;;
58567;SDS011;44354;46.192;-1.076;2022-07-23T01:21:51;22.85;;;13.88;;
58567;SDS011;44354;46.192;-1.076;2022-07-23T01:24:17;25.35;;;14.57;;
58567;SDS011;44354;46.192;-1.076;2022-07-23T01:26:45;22.75;;;14.07;;
58567;SDS011;44354;46.192;-1.076;2022-07-23T01:29:12;23.67;;;14.02;;
58567;SDS011;44354;46.192;-1.076;2022-07-23T01:31:38;22.42;;;14.20;;
58567;SDS011;44354;46.192;-1.076;2022-07-23T01:34:04;25.30;;;13.63;;
58567;SDS011;44354;46.192;-1.076;2022-07-23T01:36:32;21.30;;;12.73;;
58567;SDS011;44354;46.192;-1.076;2022-07-23T01:38:58;22.98;;;13.30;;
58567;SDS011;44354;46.192;-1.076;2022-07-23T01:41:24;24.63;;;13.32;;
58567;SDS011;44354;46.192;-1.076;2022-07-23T01:43:49;19.85;;;13.98;;
58567;SDS011;44354;46.192;-1.076;2022-07-23T01:46:15;20.30;;;13.48;;
58567;SDS011;44354;46.192;-1.076;2022-07-23T01:48:41;18.10;;;13.07;;
58567;SDS011;44354;46.192;-1.076;2022-07-23T01:51:06;22.55;;;12.40;;
58567;SDS011;44354;46.192;-1.076;2022-07-23T01:53:32;23.83;;;13.32;;
58567;SDS011;44354;46.192;-1.076;2022-07-23T01:55:58;25.52;;;13.15;;
58567;SDS011;44354;46.192;-1.076;2022-07-23T01:58:25;22.38;;;13.90;;
58567;SDS011;44354;46.192;-1.076;2022-07-23T02:00:52;22.45;;;13.73;;
58567;SDS011;44354;46.192;-1.076;2022-07-23T02:03:19;25.17;;;13.65;;
58567;SDS011;44354;46.192;-1.076;2022-07-23T02:05:45;21.85;;;13.82;;
58567;SDS011;44354;46.192;-1.076;2022-07-23T02:08:11;21.67;;;12.48;;
58567;SDS011;44354;46.192;-1.076;2022-07-23T02:10:37;28.63;;;13.95;;
58567;SDS011;44354;46.192;-1.076;2022-07-23T02:13:02;25.33;;;13.65;;
58567;SDS011;44354;46.192;-1.076;2022-07-23T02:15:28;23.35;;;14.57;;
58567;SDS011;44354;46.192;-1.076;2022-07-23T02:17:54;22.80;;;13.65;;
58567;SDS011;44354;46.192;-1.076;2022-07-23T02:20:20;19.67;;;12.77;;
58567;SDS011;44354;46.192;-1.076;2022-07-23T02:22:46;22.27;;;12.48;;
58567;SDS011;44354;46.192;-1.076;2022-07-23T02:25:12;24.30;;;12.00;;
58567;SDS011;44354;46.192;-1.076;2022-07-23T02:27:38;18.52;;;11.65;;
58567;SDS011;44354;46.192;-1.076;2022-07-23T02:30:04;18.63;;;11.25;;
58567;SDS011;44354;46.192;-1.076;2022-07-23T02:32:30;21.75;;;11.35;;
58567;SDS011;44354;46.192;-1.076;2022-07-23T02:34:56;19.45;;;10.38;;
58567;SDS011;44354;46.192;-1.076;2022-07-23T02:37:22;19.42;;;10.75;;
58567;SDS011;44354;46.192;-1.076;2022-07-23T02:39:48;16.15;;;9.32;;
58567;SDS011;44354;46.192;-1.076;2022-07-23T02:42:14;15.18;;;9.00;;
58567;SDS011;44354;46.192;-1.076;2022-07-23T02:44:40;18.73;;;9.43;;
58567;SDS011;44354;46.192;-1.076;2022-07-23T02:47:06;19.08;;;9.20;;
58567;SDS011;44354;46.192;-1.076;2022-07-23T02:49:32;16.48;;;9.00;;
58567;SDS011;44354;46.192;-1.076;2022-07-23T02:51:57;14.85;;;9.32;;
58567;SDS011;44354;46.192;-1.076;2022-07-23T02:54:23;14.02;;;8.63;;
58567;SDS011;44354;46.192;-1.076;2022-07-23T02:56:49;14.25;;;8.38;;
58567;SDS011;44354;46.192;-1.076;2022-07-23T02:59:16;15.32;;;8.70;;
58567;SDS011;44354;46.192;-1.076;2022-07-23T03:01:42;20.73;;;8.80;;
58567;SDS011;44354;46.192;-1.076;2022-07-23T03:04:08;19.83;;;8.90;;
58567;SDS011;44354;46.192;-1.076;2022-07-23T03:06:33;14.13;;;8.90;;
58567;SDS011;44354;46.192;-1.076;2022-07-23T03:08:59;13.80;;;9.93;;
58567;SDS011;44354;46.192;-1.076;2022-07-23T03:11:25;17.63;;;8.27;;
58567;SDS011;44354;46.192;-1.076;2022-07-23T03:13:50;16.05;;;8.60;;
58567;SDS011;44354;46.192;-1.076;2022-07-23T03:16:16;12.63;;;7.90;;
58567;SDS011;44354;46.192;-1.076;2022-07-23T03:18:42;19.35;;;9.38;;
58567;SDS011;44354;46.192;-1.076;2022-07-23T03:21:07;13.48;;;8.63;;
58567;SDS011;44354;46.192;-1.076;2022-07-23T03:23:33;18.70;;;8.88;;
58567;SDS011;44354;46.192;-1.076;2022-07-23T03:25:59;13.63;;;8.32;;
58567;SDS011;44354;46.192;-1.076;2022-07-23T03:28:24;16.75;;;8.48;;
58567;SDS011;44354;46.192;-1.076;2022-07-23T03:30:50;10.85;;;8.65;;
58567;SDS011;44354;46.192;-1.076;2022-07-23T03:33:16;14.15;;;8.85;;
58567;SDS011;44354;46.192;-1.076;2022-07-23T03:35:43;15.98;;;8.95;;
58567;SDS011;44354;46.192;-1.076;2022-07-23T03:38:09;14.30;;;9.45;;
58567;SDS011;44354;46.192;-1.076;2022-07-23T03:40:35;15.00;;;9.30;;
58567;SDS011;44354;46.192;-1.076;2022-07-23T03:43:01;14.50;;;9.35;;
58567;SDS011;44354;46.192;-1.076;2022-07-23T03:45:26;14.05;;;9.30;;
58567;SDS011;44354;46.192;-1.076;2022-07-23T03:47:52;16.45;;;9.48;;
58567;SDS011;44354;46.192;-1.076;2022-07-23T03:50:18;17.42;;;9.02;;
58567;SDS011;44354;46.192;-1.076;2022-07-23T03:52:44;14.63;;;9.55;;
58567;SDS011;44354;46.192;-1.076;2022-07-23T03:55:10;13.95;;;9.13;;
58567;SDS011;44354;46.192;-1.076;2022-07-23T03:57:35;14.68;;;8.93;;
58567;SDS011;44354;46.192;-1.076;2022-07-23T04:00:02;16.73;;;9.35;;
58567;SDS011;44354;46.192;-1.076;2022-07-23T04:02:30;19.48;;;9.55;;
58567;SDS011;44354;46.192;-1.076;2022-07-23T04:04:56;18.45;;;9.13;;
58567;SDS011;44354;46.192;-1.076;2022-07-23T04:07:22;19.00;;;8.93;;
58567;SDS011;44354;46.192;-1.076;2022-07-23T04:09:47;15.45;;;9.02;;
58567;SDS011;44354;46.192;-1.076;2022-07-23T04:12:13;15.60;;;8.90;;
58567;SDS011;44354;46.192;-1.076;2022-07-23T04:14:39;15.85;;;8.82;;
58567;SDS011;44354;46.192;-1.076;2022-07-23T04:17:05;12.68;;;8.85;;
58567;SDS011;44354;46.192;-1.076;2022-07-23T04:19:31;14.75;;;8.82;;
58567;SDS011;44354;46.192;-1.076;2022-07-23T04:21:57;13.77;;;8.57;;
58567;SDS011;44354;46.192;-1.076;2022-07-23T04:24:23;15.88;;;8.18;;
58567;SDS011;44354;46.192;-1.076;2022-07-23T04:26:48;11.80;;;8.27;;
58567;SDS011;44354;46.192;-1.076;2022-07-23T04:29:14;18.33;;;7.80;;
58567;SDS011;44354;46.192;-1.076;2022-07-23T04:31:40;11.00;;;7.28;;
58567;SDS011;44354;46.192;-1.076;2022-07-23T04:34:05;16.77;;;7.40;;
58567;SDS011;44354;46.192;-1.076;2022-07-23T04:36:31;13.73;;;7.07;;
58567;SDS011;44354;46.192;-1.076;2022-07-23T04:38:56;16.50;;;7.00;;
58567;SDS011;44354;46.192;-1.076;2022-07-23T04:41:22;16.45;;;7.72;;
58567;SDS011;44354;46.192;-1.076;2022-07-23T04:43:48;12.25;;;6.47;;
58567;SDS011;44354;46.192;-1.076;2022-07-23T04:46:13;11.13;;;6.25;;
58567;SDS011;44354;46.192;-1.076;2022-07-23T04:48:39;10.93;;;6.43;;
58567;SDS011;44354;46.192;-1.076;2022-07-23T04:51:05;11.80;;;7.20;;
58567;SDS011;44354;46.192;-1.076;2022-07-23T04:53:31;12.27;;;6.65;;
58567;SDS011;44354;46.192;-1.076;2022-07-23T04:55:57;9.80;;;5.82;;
58567;SDS011;44354;46.192;-1.076;2022-07-23T04:58:23;13.10;;;6.57;;
58567;SDS011;44354;46.192;-1.076;2022-07-23T05:00:48;10.05;;;6.75;;
58567;SDS011;44354;46.192;-1.076;2022-07-23T05:03:15;13.07;;;6.65;;
58567;SDS011;44354;46.192;-1.076;2022-07-23T05:05:41;12.77;;;6.90;;
58567;SDS011;44354;46.192;-1.076;2022-07-23T05:08:06;15.23;;;6.03;;
58567;SDS011;44354;46.192;-1.076;2022-07-23T05:10:32;9.95;;;6.57;;
58567;SDS011;44354;46.192;-1.076;2022-07-23T05:12:58;14.77;;;6.85;;
58567;SDS011;44354;46.192;-1.076;2022-07-23T05:15:23;15.25;;;6.93;;
58567;SDS011;44354;46.192;-1.076;2022-07-23T05:17:49;15.30;;;7.28;;
58567;SDS011;44354;46.192;-1.076;2022-07-23T05:20:15;10.55;;;6.70;;
58567;SDS011;44354;46.192;-1.076;2022-07-23T05:22:40;13.35;;;6.38;;
58567;SDS011;44354;46.192;-1.076;2022-07-23T05:25:06;13.52;;;6.60;;
58567;SDS011;44354;46.192;-1.076;2022-07-23T05:27:32;12.02;;;6.57;;
58567;SDS011;44354;46.192;-1.076;2022-07-23T05:29:58;13.90;;;6.43;;
58567;SDS011;44354;46.192;-1.076;2022-07-23T05:32:24;11.60;;;6.20;;
58567;SDS011;44354;46.192;-1.076;2022-07-23T05:34:50;10.85;;;5.88;;
58567;SDS011;44354;46.192;-1.076;2022-07-23T05:37:16;9.43;;;5.38;;
58567;SDS011;44354;46.192;-1.076;2022-07-23T05:39:42;12.57;;;6.70;;
58567;SDS011;44354;46.192;-1.076;2022-07-23T05:42:07;8.02;;;5.13;;
58567;SDS011;44354;46.192;-1.076;2022-07-23T05:44:33;15.00;;;6.63;;
58567;SDS011;44354;46.192;-1.076;2022-07-23T05:46:59;12.65;;;5.97;;
58567;SDS011;44354;46.192;-1.076;2022-07-23T05:49:24;12.07;;;5.60;;
58567;SDS011;44354;46.192;-1.076;2022-07-23T05:51:50;9.50;;;5.55;;
58567;SDS011;44354;46.192;-1.076;2022-07-23T05:54:16;12.27;;;5.63;;
58567;SDS011;44354;46.192;-1.076;2022-07-23T05:56:42;8.43;;;5.45;;
58567;SDS011;44354;46.192;-1.076;2022-07-23T05:59:07;10.18;;;5.18;;
58567;SDS011;44354;46.192;-1.076;2022-07-23T06:01:33;8.02;;;5.45;;
58567;SDS011;44354;46.192;-1.076;2022-07-23T06:03:59;11.68;;;5.55;;
58567;SDS011;44354;46.192;-1.076;2022-07-23T06:06:24;10.27;;;4.88;;
58567;SDS011;44354;46.192;-1.076;2022-07-23T06:08:50;8.05;;;4.88;;
58567;SDS011;44354;46.192;-1.076;2022-07-23T06:11:16;12.95;;;5.60;;
58567;SDS011;44354;46.192;-1.076;2022-07-23T06:13:41;7.75;;;5.20;;
58567;SDS011;44354;46.192;-1.076;2022-07-23T06:16:07;7.53;;;5.47;;
58567;SDS011;44354;46.192;-1.076;2022-07-23T06:18:33;11.70;;;5.00;;
58567;SDS011;44354;46.192;-1.076;2022-07-23T06:20:58;9.07;;;4.70;;
58567;SDS011;44354;46.192;-1.076;2022-07-23T06:23:24;10.55;;;4.85;;
58567;SDS011;44354;46.192;-1.076;2022-07-23T06:25:50;14.45;;;4.53;;
58567;SDS011;44354;46.192;-1.076;2022-07-23T06:28:15;8.55;;;4.35;;
58567;SDS011;44354;46.192;-1.076;2022-07-23T06:30:41;12.15;;;4.65;;
58567;SDS011;44354;46.192;-1.076;2022-07-23T06:33:07;7.80;;;4.07;;
58567;SDS011;44354;46.192;-1.076;2022-07-23T06:35:32;13.02;;;3.85;;
58567;SDS011;44354;46.192;-1.076;2022-07-23T06:37:59;6.78;;;3.80;;
58567;SDS011;44354;46.192;-1.076;2022-07-23T06:40:24;11.63;;;4.30;;
58567;SDS011;44354;46.192;-1.076;2022-07-23T06:42:50;5.60;;;3.80;;
58567;SDS011;44354;46.192;-1.076;2022-07-23T06:45:16;7.47;;;4.07;;
58567;SDS011;44354;46.192;-1.076;2022-07-23T06:47:42;11.77;;;4.70;;
58567;SDS011;44354;46.192;-1.076;2022-07-23T06:50:08;13.35;;;4.13;;
58567;SDS011;44354;46.192;-1.076;2022-07-23T06:52:34;7.95;;;4.47;;
58567;SDS011;44354;46.192;-1.076;2022-07-23T06:55:00;10.57;;;4.80;;
58567;SDS011;44354;46.192;-1.076;2022-07-23T06:57:25;8.82;;;4.82;;
58567;SDS011;44354;46.192;-1.076;2022-07-23T06:59:51;8.15;;;4.82;;
58567;SDS011;44354;46.192;-1.076;2022-07-23T07:02:18;12.57;;;4.95;;
58567;SDS011;44354;46.192;-1.076;2022-07-23T07:04:43;10.20;;;4.45;;
58567;SDS011;44354;46.192;-1.076;2022-07-23T07:07:09;6.70;;;4.10;;
58567;SDS011;44354;46.192;-1.076;2022-07-23T07:09:35;8.98;;;4.78;;
58567;SDS011;44354;46.192;-1.076;2022-07-23T07:12:00;10.73;;;5.15;;
58567;SDS011;44354;46.192;-1.076;2022-07-23T07:14:26;10.48;;;4.88;;
58567;SDS011;44354;46.192;-1.076;2022-07-23T07:16:52;9.43;;;5.43;;
58567;SDS011;44354;46.192;-1.076;2022-07-23T07:19:18;7.47;;;4.13;;
58567;SDS011;44354;46.192;-1.076;2022-07-23T07:21:43;7.68;;;3.85;;
58567;SDS011;44354;46.192;-1.076;2022-07-23T07:24:09;8.98;;;3.88;;
58567;SDS011;44354;46.192;-1.076;2022-07-23T07:26:35;9.70;;;4.32;;
58567;SDS011;44354;46.192;-1.076;2022-07-23T07:29:00;11.50;;;5.43;;
58567;SDS011;44354;46.192;-1.076;2022-07-23T07:31:26;10.57;;;4.30;;
58567;SDS011;44354;46.192;-1.076;2022-07-23T07:33:52;9.27;;;4.60;;
58567;SDS011;44354;46.192;-1.076;2022-07-23T07:36:18;10.82;;;4.47;;
58567;SDS011;44354;46.192;-1.076;2022-07-23T07:38:44;12.80;;;4.72;;
58567;SDS011;44354;46.192;-1.076;2022-07-23T07:41:09;12.38;;;5.10;;
58567;SDS011;44354;46.192;-1.076;2022-07-23T07:43:35;10.85;;;4.07;;
58567;SDS011;44354;46.192;-1.076;2022-07-23T07:46:02;10.88;;;4.50;;
58567;SDS011;44354;46.192;-1.076;2022-07-23T07:48:28;9.05;;;4.32;;
58567;SDS011;44354;46.192;-1.076;2022-07-23T07:50:54;10.10;;;4.03;;
58567;SDS011;44354;46.192;-1.076;2022-07-23T07:53:19;9.48;;;4.13;;
58567;SDS011;44354;46.192;-1.076;2022-07-23T07:55:45;8.68;;;4.50;;
58567;SDS011;44354;46.192;-1.076;2022-07-23T07:58:11;7.47;;;3.95;;
58567;SDS011;44354;46.192;-1.076;2022-07-23T08:00:37;10.05;;;4.40;;
58567;SDS011;44354;46.192;-1.076;2022-07-23T08:03:02;10.70;;;4.32;;
58567;SDS011;44354;46.192;-1.076;2022-07-23T08:05:28;10.55;;;4.28;;
58567;SDS011;44354;46.192;-1.076;2022-07-23T08:07:55;10.43;;;4.30;;
58567;SDS011;44354;46.192;-1.076;2022-07-23T08:10:22;8.57;;;3.78;;
58567;SDS011;44354;46.192;-1.076;2022-07-23T08:12:50;7.07;;;3.63;;
58567;SDS011;44354;46.192;-1.076;2022-07-23T08:15:24;8.77;;;3.60;;
58567;SDS011;44354;46.192;-1.076;2022-07-23T08:17:52;8.32;;;3.92;;
58567;SDS011;44354;46.192;-1.076;2022-07-23T08:20:19;9.23;;;3.17;;
58567;SDS011;44354;46.192;-1.076;2022-07-23T08:22:50;6.13;;;2.97;;
58567;SDS011;44354;46.192;-1.076;2022-07-23T08:25:29;6.20;;;2.95;;
58567;SDS011;44354;46.192;-1.076;2022-07-23T08:28:05;7.72;;;2.53;;
58567;SDS011;44354;46.192;-1.076;2022-07-23T08:30:33;4.80;;;2.33;;
58567;SDS011;44354;46.192;-1.076;2022-07-23T08:33:04;6.38;;;2.33;;
58567;SDS011;44354;46.192;-1.076;2022-07-23T08:35:36;11.68;;;3.05;;
58567;SDS011;44354;46.192;-1.076;2022-07-23T08:38:04;4.95;;;2.58;;
58567;SDS011;44354;46.192;-1.076;2022-07-23T08:40:34;5.78;;;2.42;;
58567;SDS011;44354;46.192;-1.076;2022-07-23T08:43:06;5.13;;;1.83;;
58567;SDS011;44354;46.192;-1.076;2022-07-23T08:45:37;3.13;;;2.03;;
58567;SDS011;44354;46.192;-1.076;2022-07-23T08:48:11;4.15;;;2.13;;
58567;SDS011;44354;46.192;-1.076;2022-07-23T08:50:49;3.33;;;2.15;;
58567;SDS011;44354;46.192;-1.076;2022-07-23T08:53:17;6.50;;;2.22;;
58567;SDS011;44354;46.192;-1.076;2022-07-23T08:55:47;10.63;;;2.20;;
58567;SDS011;44354;46.192;-1.076;2022-07-23T08:58:14;10.38;;;2.10;;
58567;SDS011;44354;46.192;-1.076;2022-07-23T09:00:40;6.50;;;2.03;;
58567;SDS011;44354;46.192;-1.076;2022-07-23T09:03:06;7.57;;;2.20;;
58567;SDS011;44354;46.192;-1.076;2022-07-23T09:05:32;4.10;;;2.13;;
58567;SDS011;44354;46.192;-1.076;2022-07-23T09:13:25;8.98;;;2.50;;
58567;SDS011;44354;46.192;-1.076;2022-07-23T09:15:57;4.75;;;2.10;;
58567;SDS011;44354;46.192;-1.076;2022-07-23T09:18:31;5.47;;;2.33;;
58567;SDS011;44354;46.192;-1.076;2022-07-23T09:21:10;7.25;;;2.10;;
58567;SDS011;44354;46.192;-1.076;2022-07-23T09:26:22;5.80;;;2.50;;
58567;SDS011;44354;46.192;-1.076;2022-07-23T09:31:23;5.47;;;1.98;;
58567;SDS011;44354;46.192;-1.076;2022-07-23T09:33:50;5.20;;;2.33;;
58567;SDS011;44354;46.192;-1.076;2022-07-23T09:36:30;9.15;;;2.78;;
58567;SDS011;44354;46.192;-1.076;2022-07-23T09:38:56;3.45;;;2.20;;
58567;SDS011;44354;46.192;-1.076;2022-07-23T09:41:22;6.47;;;1.90;;
58567;SDS011;44354;46.192;-1.076;2022-07-23T09:43:54;310.75;;;13.07;;
58567;SDS011;44354;46.192;-1.076;2022-07-23T09:46:27;4.65;;;1.95;;
58567;SDS011;44354;46.192;-1.076;2022-07-23T09:48:53;3.53;;;1.70;;
58567;SDS011;44354;46.192;-1.076;2022-07-23T09:51:23;6.63;;;2.08;;
58567;SDS011;44354;46.192;-1.076;2022-07-23T09:53:58;4.00;;;2.17;;
58567;SDS011;44354;46.192;-1.076;2022-07-23T09:56:25;5.90;;;1.92;;
58567;SDS011;44354;46.192;-1.076;2022-07-23T09:58:53;5.40;;;2.00;;
58567;SDS011;44354;46.192;-1.076;2022-07-23T10:01:31;2.85;;;1.80;;
58567;SDS011;44354;46.192;-1.076;2022-07-23T10:03:58;4.00;;;2.40;;
58567;SDS011;44354;46.192;-1.076;2022-07-23T10:06:24;831.40;;;102.88;;
58567;SDS011;44354;46.192;-1.076;2022-07-23T10:08:52;679.85;;;29.38;;
58567;SDS011;44354;46.192;-1.076;2022-07-23T10:11:23;6.10;;;2.10;;
58567;SDS011;44354;46.192;-1.076;2022-07-23T10:13:53;133.20;;;10.82;;
58567;SDS011;44354;46.192;-1.076;2022-07-23T10:16:19;16.10;;;14.80;;
58567;SDS011;44354;46.192;-1.076;2022-07-23T10:18:48;1593.00;;;803.05;;
58567;SDS011;44354;46.192;-1.076;2022-07-23T10:24:21;10.45;;;9.65;;
58567;SDS011;44354;46.192;-1.076;2022-07-23T10:30:09;9.80;;;9.05;;
58567;SDS011;44354;46.192;-1.076;2022-07-23T10:35:36;1999.90;;;999.90;;
58567;SDS011;44354;46.192;-1.076;2022-07-23T10:38:25;1999.90;;;999.90;;
58567;SDS011;44354;46.192;-1.076;2022-07-23T10:40:59;1999.90;;;999.90;;
58567;SDS011;44354;46.192;-1.076;2022-07-23T10:43:28;1999.90;;;999.90;;
58567;SDS011;44354;46.192;-1.076;2022-07-23T10:45:56;1999.90;;;999.90;;
58567;SDS011;44354;46.192;-1.076;2022-07-23T10:48:42;1999.90;;;999.90;;
58567;SDS011;44354;46.192;-1.076;2022-07-23T10:56:19;1999.90;;;999.90;;
58567;SDS011;44354;46.192;-1.076;2022-07-23T10:59:29;1999.90;;;999.90;;
58567;SDS011;44354;46.192;-1.076;2022-07-23T11:02:16;1999.90;;;999.90;;
58567;SDS011;44354;46.192;-1.076;2022-07-23T11:04:51;1999.90;;;999.90;;
58567;SDS011;44354;46.192;-1.076;2022-07-23T11:07:18;1999.90;;;999.90;;
58567;SDS011;44354;46.192;-1.076;2022-07-23T11:09:44;1999.90;;;999.90;;
58567;SDS011;44354;46.192;-1.076;2022-07-23T11:25:08;1999.90;;;999.90;;
58567;SDS011;44354;46.192;-1.076;2022-07-23T11:27:38;1999.90;;;999.90;;
58567;SDS011;44354;46.192;-1.076;2022-07-23T11:30:09;1999.90;;;999.90;;
58567;SDS011;44354;46.192;-1.076;2022-07-23T11:35:33;1999.90;;;999.90;;
58567;SDS011;44354;46.192;-1.076;2022-07-23T11:38:04;1999.90;;;999.90;;
58567;SDS011;44354;46.192;-1.076;2022-07-23T11:40:29;1999.90;;;999.90;;
58567;SDS011;44354;46.192;-1.076;2022-07-23T11:42:56;1999.90;;;999.90;;
58567;SDS011;44354;46.192;-1.076;2022-07-23T11:45:25;1999.90;;;999.90;;
58567;SDS011;44354;46.192;-1.076;2022-07-23T11:47:56;1999.90;;;999.90;;
58567;SDS011;44354;46.192;-1.076;2022-07-23T11:50:23;1999.90;;;999.90;;
58567;SDS011;44354;46.192;-1.076;2022-07-23T11:52:50;1999.90;;;999.90;;
58567;SDS011;44354;46.192;-1.076;2022-07-23T11:55:16;1999.90;;;999.90;;
58567;SDS011;44354;46.192;-1.076;2022-07-23T11:57:44;1999.90;;;999.90;;
58567;SDS011;44354;46.192;-1.076;2022-07-23T12:00:11;1999.90;;;999.90;;
58567;SDS011;44354;46.192;-1.076;2022-07-23T12:02:46;1999.90;;;999.90;;
58567;SDS011;44354;46.192;-1.076;2022-07-23T12:05:17;1999.90;;;999.90;;
58567;SDS011;44354;46.192;-1.076;2022-07-23T12:07:45;1999.90;;;999.90;;
58567;SDS011;44354;46.192;-1.076;2022-07-23T12:10:16;1999.90;;;999.90;;
58567;SDS011;44354;46.192;-1.076;2022-07-23T12:12:44;1999.90;;;999.90;;
58567;SDS011;44354;46.192;-1.076;2022-07-23T12:15:24;1999.90;;;999.90;;
58567;SDS011;44354;46.192;-1.076;2022-07-23T12:17:58;1999.90;;;999.90;;
58567;SDS011;44354;46.192;-1.076;2022-07-23T12:20:26;1999.90;;;999.90;;
58567;SDS011;44354;46.192;-1.076;2022-07-23T12:22:57;1999.90;;;999.90;;
58567;SDS011;44354;46.192;-1.076;2022-07-23T12:25:25;1999.90;;;999.90;;
58567;SDS011;44354;46.192;-1.076;2022-07-23T12:28:00;1999.90;;;999.90;;
58567;SDS011;44354;46.192;-1.076;2022-07-23T12:30:30;1999.90;;;999.90;;
58567;SDS011;44354;46.192;-1.076;2022-07-23T12:33:02;1999.90;;;999.90;;
58567;SDS011;44354;46.192;-1.076;2022-07-23T12:35:36;1999.90;;;999.90;;
58567;SDS011;44354;46.192;-1.076;2022-07-23T12:38:06;1999.90;;;999.90;;
58567;SDS011;44354;46.192;-1.076;2022-07-23T12:40:46;1999.90;;;999.90;;
58567;SDS011;44354;46.192;-1.076;2022-07-23T12:43:22;1999.90;;;999.90;;
58567;SDS011;44354;46.192;-1.076;2022-07-23T12:46:08;1999.90;;;999.90;;
58567;SDS011;44354;46.192;-1.076;2022-07-23T12:48:36;1999.90;;;999.90;;
58567;SDS011;44354;46.192;-1.076;2022-07-23T12:51:05;1999.90;;;999.90;;
58567;SDS011;44354;46.192;-1.076;2022-07-23T12:58:43;1999.90;;;999.90;;
58567;SDS011;44354;46.192;-1.076;2022-07-23T13:01:10;1999.90;;;999.90;;
58567;SDS011;44354;46.192;-1.076;2022-07-23T13:09:14;1999.90;;;999.90;;
58567;SDS011;44354;46.192;-1.076;2022-07-23T13:11:45;1999.90;;;999.90;;
58567;SDS011;44354;46.192;-1.076;2022-07-23T13:14:12;1999.90;;;999.90;;
58567;SDS011;44354;46.192;-1.076;2022-07-23T13:16:39;1999.90;;;999.90;;
58567;SDS011;44354;46.192;-1.076;2022-07-23T13:19:05;1999.90;;;999.90;;
58567;SDS011;44354;46.192;-1.076;2022-07-23T13:21:32;1999.90;;;999.90;;
58567;SDS011;44354;46.192;-1.076;2022-07-23T13:23:58;1999.90;;;999.90;;
58567;SDS011;44354;46.192;-1.076;2022-07-23T13:26:24;1999.90;;;999.90;;
58567;SDS011;44354;46.192;-1.076;2022-07-23T13:28:50;1999.90;;;999.90;;
58567;SDS011;44354;46.192;-1.076;2022-07-23T13:31:16;1999.90;;;999.90;;
58567;SDS011;44354;46.192;-1.076;2022-07-23T13:33:42;1999.90;;;999.90;;
58567;SDS011;44354;46.192;-1.076;2022-07-23T13:36:08;1999.90;;;999.90;;
58567;SDS011;44354;46.192;-1.076;2022-07-23T13:38:33;1999.90;;;999.90;;
58567;SDS011;44354;46.192;-1.076;2022-07-23T13:40:59;1999.90;;;999.90;;
58567;SDS011;44354;46.192;-1.076;2022-07-23T13:43:25;1999.90;;;999.90;;
58567;SDS011;44354;46.192;-1.076;2022-07-23T13:45:51;1999.90;;;999.90;;
58567;SDS011;44354;46.192;-1.076;2022-07-23T13:48:18;1999.90;;;999.90;;
58567;SDS011;44354;46.192;-1.076;2022-07-23T13:50:44;1999.90;;;999.90;;
58567;SDS011;44354;46.192;-1.076;2022-07-23T13:53:12;1999.90;;;999.90;;
58567;SDS011;44354;46.192;-1.076;2022-07-23T13:55:40;1999.90;;;999.90;;
58567;SDS011;44354;46.192;-1.076;2022-07-23T13:58:07;1999.90;;;999.90;;
58567;SDS011;44354;46.192;-1.076;2022-07-23T14:00:35;1999.90;;;999.90;;
58567;SDS011;44354;46.192;-1.076;2022-07-23T14:03:02;1999.90;;;999.90;;
58567;SDS011;44354;46.192;-1.076;2022-07-23T14:05:29;1999.90;;;999.90;;
58567;SDS011;44354;46.192;-1.076;2022-07-23T14:07:55;1999.90;;;999.90;;
58567;SDS011;44354;46.192;-1.076;2022-07-23T14:10:21;1999.90;;;999.90;;
58567;SDS011;44354;46.192;-1.076;2022-07-23T14:12:49;1999.90;;;999.90;;
58567;SDS011;44354;46.192;-1.076;2022-07-23T14:15:15;1999.90;;;999.90;;
58567;SDS011;44354;46.192;-1.076;2022-07-23T14:17:43;1999.90;;;999.90;;
58567;SDS011;44354;46.192;-1.076;2022-07-23T14:20:10;1999.90;;;999.90;;
58567;SDS011;44354;46.192;-1.076;2022-07-23T14:22:37;1999.90;;;999.90;;
58567;SDS011;44354;46.192;-1.076;2022-07-23T14:25:03;1999.90;;;999.90;;
58567;SDS011;44354;46.192;-1.076;2022-07-23T14:27:30;1999.90;;;999.90;;
58567;SDS011;44354;46.192;-1.076;2022-07-23T14:29:56;1999.90;;;999.90;;
58567;SDS011;44354;46.192;-1.076;2022-07-23T14:32:22;1999.90;;;999.90;;
58567;SDS011;44354;46.192;-1.076;2022-07-23T14:34:48;1999.90;;;999.90;;
58567;SDS011;44354;46.192;-1.076;2022-07-23T14:37:15;1999.90;;;999.90;;
58567;SDS011;44354;46.192;-1.076;2022-07-23T14:39:42;1999.90;;;999.90;;
58567;SDS011;44354;46.192;-1.076;2022-07-23T14:42:10;1999.90;;;999.90;;
58567;SDS011;44354;46.192;-1.076;2022-07-23T14:44:37;1999.90;;;999.90;;
58567;SDS011;44354;46.192;-1.076;2022-07-23T14:47:03;1999.90;;;999.90;;
58567;SDS011;44354;46.192;-1.076;2022-07-23T14:49:32;1999.90;;;999.90;;
58567;SDS011;44354;46.192;-1.076;2022-07-23T14:51:58;1999.90;;;999.90;;
58567;SDS011;44354;46.192;-1.076;2022-07-23T14:54:25;1999.90;;;999.90;;
58567;SDS011;44354;46.192;-1.076;2022-07-23T14:56:53;1999.90;;;999.90;;
58567;SDS011;44354;46.192;-1.076;2022-07-23T14:59:20;1999.90;;;999.90;;
58567;SDS011;44354;46.192;-1.076;2022-07-23T15:01:45;1999.90;;;999.90;;